Time;durP1;ratioP1;P1;durP2;ratioP2;P2;SDS_P1;SDS_P2;PMS_P1;PMS_P2;Temp;Humidity;BMP_temperature;BMP_pressure;BME280_temperature;BME280_humidity;BME280_pressure;Samples;Min_cycle;Max_cycle;Signal;HPM_P1;HPM_P2
2021/06/05 00:01:13;;;;;;;11.57;6.63;;;487.20;1433.60;;;;;;5075288;28;20029;-56
2021/06/05 00:03:39;;;;;;;8.45;5.97;;;487.30;1433.60;;;;;;5074678;28;20028;-56
2021/06/05 00:06:05;;;;;;;10.65;7.05;;;487.20;1408.00;;;;;;5074797;28;20070;-68
2021/06/05 00:08:33;;;;;;;12.65;6.45;;;487.20;1433.60;;;;;;5075211;28;20508;-56
2021/06/05 00:11:04;;;;;;;9.93;6.57;;;487.10;1433.60;;;;;;5076546;28;20032;-61
2021/06/05 00:13:37;;;;;;;13.32;6.25;;;487.10;1459.20;;;;;;5076990;28;20082;-56
2021/06/05 00:16:07;;;;;;;16.75;6.22;;;487.10;1459.20;;;;;;5077045;28;20024;-68
2021/06/05 00:18:33;;;;;;;13.65;6.60;;;487.10;1459.20;;;;;;5075577;28;20029;-56
2021/06/05 00:20:59;;;;;;;10.98;6.25;;;487.10;1459.20;;;;;;5076849;28;20113;-56
2021/06/05 00:23:26;;;;;;;13.63;7.57;;;487.10;1484.80;;;;;;5077105;28;20480;-56
2021/06/05 00:25:53;;;;;;;17.38;6.65;;;487.10;1484.80;;;;;;5076936;28;20055;-56
2021/06/05 00:28:20;;;;;;;12.02;6.22;;;487.10;1484.80;;;;;;5076726;28;20017;-56
2021/06/05 00:30:46;;;;;;;17.73;7.10;;;487.10;1484.80;;;;;;5076558;28;20043;-56
2021/06/05 00:33:13;;;;;;;12.20;6.60;;;487.10;1459.20;;;;;;5076949;28;20017;-56
2021/06/05 00:35:40;;;;;;;10.88;6.50;;;487.00;1484.80;;;;;;5076506;28;20103;-56
2021/06/05 00:38:07;;;;;;;14.18;6.70;;;487.00;1484.80;;;;;;5076494;28;20063;-56
2021/06/05 00:40:38;;;;;;;10.25;6.28;;;487.00;1484.80;;;;;;5076829;28;20043;-57
2021/06/05 00:43:05;;;;;;;13.60;7.13;;;486.90;1484.80;;;;;;5076541;28;20070;-56
2021/06/05 00:45:35;;;;;;;10.38;7.03;;;486.90;1484.80;;;;;;5076462;28;20031;-56
2021/06/05 00:48:01;;;;;;;13.32;7.50;;;486.90;1510.40;;;;;;5076630;28;20086;-68
2021/06/05 00:50:28;;;;;;;13.25;7.50;;;486.80;1510.40;;;;;;5076247;28;20484;-69
2021/06/05 00:52:54;;;;;;;16.20;7.38;;;486.80;1510.40;;;;;;5076328;28;20020;-55
2021/06/05 00:55:23;;;;;;;12.65;7.13;;;486.80;1510.40;;;;;;5076531;28;20048;-56
2021/06/05 00:57:49;;;;;;;13.43;7.60;;;486.80;1510.40;;;;;;5075959;28;20397;-56
2021/06/05 01:00:27;;;;;;;10.63;6.53;;;486.80;1510.40;;;;;;5076139;28;20047;-55
2021/06/05 01:02:55;;;;;;;10.10;6.78;;;486.70;1510.40;;;;;;5076406;28;20427;-56
2021/06/05 01:05:21;;;;;;;15.93;7.00;;;486.70;1510.40;;;;;;5076294;28;20104;-56
2021/06/05 01:07:48;;;;;;;9.05;7.03;;;486.60;1510.40;;;;;;5075841;28;20115;-56
2021/06/05 01:10:28;;;;;;;14.07;7.78;;;486.60;1510.40;;;;;;5075569;28;20032;-56
2021/06/05 01:13:00;;;;;;;16.48;7.32;;;486.60;1510.40;;;;;;5074737;28;20032;-56
2021/06/05 01:15:31;;;;;;;17.73;7.03;;;486.60;1536.00;;;;;;5076229;28;20021;-70
2021/06/05 01:18:03;;;;;;;14.30;6.97;;;486.70;1510.40;;;;;;5076002;28;20028;-56
2021/06/05 01:20:34;;;;;;;13.15;6.78;;;486.60;1510.40;;;;;;5075793;28;20031;-58
2021/06/05 01:23:27;;;;;;;15.30;6.68;;;486.60;1536.00;;;;;;5075751;28;20422;-56
2021/06/05 01:25:56;;;;;;;11.68;6.47;;;486.60;1536.00;;;;;;5075698;28;20017;-68
2021/06/05 01:28:48;;;;;;;13.30;7.20;;;486.50;1561.60;;;;;;5075892;28;20378;-56
2021/06/05 01:31:18;;;;;;;11.23;6.68;;;486.50;1536.00;;;;;;5076022;28;20520;-56
2021/06/05 01:33:45;;;;;;;14.40;6.90;;;486.50;1536.00;;;;;;5075328;28;20412;-65
2021/06/05 01:36:13;;;;;;;12.02;6.13;;;486.50;1536.00;;;;;;5073929;28;20408;-61
2021/06/05 01:38:44;;;;;;;12.15;7.22;;;486.50;1536.00;;;;;;5075456;28;20428;-56
2021/06/05 01:41:13;;;;;;;12.98;6.72;;;486.50;1536.00;;;;;;5074333;28;20051;-56
2021/06/05 01:43:41;;;;;;;12.38;7.63;;;486.40;1536.00;;;;;;5075325;28;20573;-56
2021/06/05 01:46:07;;;;;;;15.70;7.93;;;486.40;1536.00;;;;;;5073730;28;20025;-56
2021/06/05 01:48:34;;;;;;;10.13;7.22;;;486.40;1561.60;;;;;;5075302;28;20025;-55
2021/06/05 01:51:15;;;;;;;10.32;6.88;;;486.40;1561.60;;;;;;5075170;28;20033;-55
2021/06/05 01:54:09;;;;;;;15.95;7.10;;;461.70;1561.60;;;;;;5075425;28;20024;-55
2021/06/05 01:56:43;;;;;;;18.92;6.85;;;461.60;1587.20;;;;;;5057125;28;20052;-64
2021/06/05 01:59:12;;;;;;;20.55;7.47;;;461.60;1587.20;;;;;;5075376;28;20041;-56
2021/06/05 02:01:39;;;;;;;14.60;7.65;;;461.60;1561.60;;;;;;5074979;28;20031;-56
2021/06/05 02:04:07;;;;;;;18.58;6.70;;;461.60;1587.20;;;;;;5074974;28;20024;-55
2021/06/05 02:06:33;;;;;;;10.90;7.40;;;461.60;1587.20;;;;;;5074842;28;20017;-55
2021/06/05 02:09:02;;;;;;;12.90;7.65;;;461.60;1587.20;;;;;;5074836;28;20051;-55
2021/06/05 02:11:29;;;;;;;11.30;7.05;;;461.60;1587.20;;;;;;5074719;28;20028;-56
2021/06/05 02:14:17;;;;;;;12.60;6.82;;;461.50;1587.20;;;;;;5075027;28;20066;-56
2021/06/05 02:16:47;;;;;;;11.98;7.28;;;461.50;1587.20;;;;;;5074689;28;20020;-56
2021/06/05 02:19:29;;;;;;;11.27;7.35;;;461.40;1587.20;;;;;;5074630;28;20017;-56
2021/06/05 02:21:57;;;;;;;14.75;7.90;;;461.50;1561.60;;;;;;5073927;28;20111;-55
2021/06/05 02:24:43;;;;;;;14.10;7.55;;;461.30;1587.20;;;;;;5074824;28;20021;-56
2021/06/05 02:27:11;;;;;;;13.35;6.70;;;461.20;1612.80;;;;;;5074653;28;20031;-56
2021/06/05 02:29:40;;;;;;;18.65;7.47;;;461.30;1587.20;;;;;;5074727;28;20339;-56
2021/06/05 02:32:12;;;;;;;16.30;7.07;;;461.20;1587.20;;;;;;5074361;28;20531;-56
2021/06/05 02:34:39;;;;;;;20.00;7.90;;;461.20;1612.80;;;;;;5074965;28;20452;-56
2021/06/05 02:37:08;;;;;;;16.42;8.30;;;461.20;1638.40;;;;;;5074296;28;20025;-55
2021/06/05 02:39:34;;;;;;;12.50;7.97;;;461.20;1612.80;;;;;;5074567;28;20032;-66
2021/06/05 02:42:01;;;;;;;14.65;7.80;;;461.30;1612.80;;;;;;5074170;28;20029;-56
2021/06/05 02:44:30;;;;;;;19.63;7.55;;;461.30;1587.20;;;;;;5074494;28;20028;-69
2021/06/05 02:46:58;;;;;;;18.48;7.90;;;461.20;1587.20;;;;;;5074137;28;20028;-69
2021/06/05 02:49:26;;;;;;;16.90;7.57;;;461.20;1612.80;;;;;;5074123;28;20078;-56
2021/06/05 02:52:28;;;;;;;18.80;7.85;;;461.20;1612.80;;;;;;5072686;28;20036;-65
2021/06/05 02:55:13;;;;;;;11.55;7.90;;;461.10;1612.80;;;;;;5072794;28;20477;-56
2021/06/05 02:57:40;;;;;;;15.60;8.20;;;461.00;1664.00;;;;;;5073860;28;20076;-56
2021/06/05 03:00:10;;;;;;;16.20;8.27;;;460.90;1664.00;;;;;;5073918;28;20025;-56
2021/06/05 03:02:36;;;;;;;16.02;8.30;;;460.90;1664.00;;;;;;5073830;28;20055;-70
2021/06/05 03:05:02;;;;;;;19.33;9.02;;;460.90;1664.00;;;;;;5072922;28;20445;-56
2021/06/05 03:07:28;;;;;;;18.27;8.80;;;460.90;1689.60;;;;;;5073907;28;20021;-69
2021/06/05 03:09:54;;;;;;;20.67;9.05;;;460.90;1664.00;;;;;;5073697;28;20428;-56
2021/06/05 03:12:20;;;;;;;21.70;9.23;;;461.00;1664.00;;;;;;5073671;28;20030;-56
2021/06/05 03:14:46;;;;;;;21.15;8.35;;;461.00;1664.00;;;;;;5073673;28;20537;-56
2021/06/05 03:17:12;;;;;;;21.92;8.20;;;461.10;1664.00;;;;;;5073651;28;20025;-56
2021/06/05 03:19:38;;;;;;;21.63;8.35;;;461.00;1664.00;;;;;;5073583;28;20057;-55
2021/06/05 03:22:05;;;;;;;25.67;10.70;;;461.00;1664.00;;;;;;5072343;28;20465;-56
2021/06/05 03:24:31;;;;;;;26.40;9.55;;;461.00;1689.60;;;;;;5073528;28;20031;-56
2021/06/05 03:27:00;;;;;;;29.90;10.43;;;461.00;1689.60;;;;;;5074029;28;20099;-56
2021/06/05 03:29:26;;;;;;;31.90;9.82;;;461.00;1664.00;;;;;;5073512;28;20358;-56
2021/06/05 03:31:53;;;;;;;23.30;9.07;;;461.00;1664.00;;;;;;5073307;28;20043;-56
2021/06/05 03:34:19;;;;;;;26.52;9.18;;;460.90;1664.00;;;;;;5073386;28;20056;-56
2021/06/05 03:36:44;;;;;;;22.88;8.77;;;460.90;1689.60;;;;;;5073364;28;20060;-66
2021/06/05 03:39:10;;;;;;;19.85;9.02;;;460.90;1664.00;;;;;;5073440;28;20016;-56
2021/06/05 03:41:37;;;;;;;34.10;9.80;;;460.90;1689.60;;;;;;5073666;28;20021;-68
2021/06/05 03:44:04;;;;;;;20.77;8.95;;;460.90;1689.60;;;;;;5073856;28;20108;-56
2021/06/05 03:46:31;;;;;;;26.65;9.02;;;460.90;1715.20;;;;;;5073318;28;20440;-56
2021/06/05 03:48:56;;;;;;;21.45;9.50;;;461.00;1689.60;;;;;;5073277;28;20028;-58
2021/06/05 03:51:22;;;;;;;21.70;9.48;;;461.10;1689.60;;;;;;5073150;28;20043;-59
2021/06/05 03:53:48;;;;;;;24.42;9.25;;;461.10;1689.60;;;;;;5073268;28;20012;-56
2021/06/05 03:56:14;;;;;;;26.83;9.15;;;461.10;1689.60;;;;;;5073474;28;20545;-56
2021/06/05 03:58:43;;;;;;;22.92;8.77;;;461.10;1689.60;;;;;;5072950;28;20052;-56
2021/06/05 04:01:16;;;;;;;21.38;9.00;;;461.20;1689.60;;;;;;5073447;28;20111;-56
2021/06/05 04:03:43;;;;;;;21.42;9.13;;;461.20;1689.60;;;;;;5073186;28;20039;-57
2021/06/05 04:06:09;;;;;;;21.50;8.13;;;461.20;1689.60;;;;;;5073099;28;20108;-56
2021/06/05 04:08:35;;;;;;;23.63;8.13;;;461.20;1689.60;;;;;;5073096;28;20032;-70
2021/06/05 04:11:05;;;;;;;17.58;8.07;;;461.20;1689.60;;;;;;5073014;28;20033;-58
2021/06/05 04:13:31;;;;;;;25.50;8.93;;;461.20;1689.60;;;;;;5073032;28;20401;-56
2021/06/05 04:15:57;;;;;;;29.33;8.45;;;461.30;1689.60;;;;;;5073065;28;20492;-56
2021/06/05 04:18:30;;;;;;;25.95;9.45;;;461.40;1689.60;;;;;;5073269;28;20024;-68
2021/06/05 04:20:57;;;;;;;16.10;7.97;;;461.50;1689.60;;;;;;5071767;28;20032;-56
2021/06/05 04:23:24;;;;;;;17.17;8.48;;;461.50;1715.20;;;;;;5072988;28;20020;-68
2021/06/05 04:25:50;;;;;;;21.50;7.82;;;461.60;1689.60;;;;;;5072918;28;20032;-56
2021/06/05 04:28:19;;;;;;;17.83;7.88;;;461.60;1689.60;;;;;;5072955;28;20021;-56
2021/06/05 04:30:45;;;;;;;15.52;8.02;;;486.40;1664.00;;;;;;5072849;28;20515;-56
2021/06/05 04:33:14;;;;;;;17.27;7.70;;;486.40;1638.40;;;;;;5072880;28;20013;-56
2021/06/05 04:35:40;;;;;;;17.58;7.75;;;486.50;1638.40;;;;;;5072972;28;20487;-57
2021/06/05 04:38:07;;;;;;;16.27;7.72;;;486.50;1638.40;;;;;;5072811;28;20389;-69
2021/06/05 04:40:33;;;;;;;14.43;6.85;;;486.50;1638.40;;;;;;5072843;28;20380;-56
2021/06/05 04:42:59;;;;;;;12.57;7.38;;;486.60;1638.40;;;;;;5071492;28;20082;-56
2021/06/05 04:45:25;;;;;;;11.07;7.28;;;486.70;1587.20;;;;;;5076350;28;20024;-56
2021/06/05 04:47:52;;;;;;;14.07;7.05;;;486.80;1561.60;;;;;;5076546;28;20020;-56
2021/06/05 04:50:22;;;;;;;17.08;7.43;;;486.80;1587.20;;;;;;5076586;28;20037;-55
2021/06/05 04:52:48;;;;;;;15.65;7.07;;;486.80;1561.60;;;;;;5076660;28;20016;-56
2021/06/05 04:55:15;;;;;;;13.95;7.53;;;486.90;1561.60;;;;;;5076245;28;20412;-56
2021/06/05 04:57:41;;;;;;;13.50;7.97;;;486.90;1587.20;;;;;;5076035;28;20078;-69
2021/06/05 05:00:15;;;;;;;11.23;6.97;;;486.90;1587.20;;;;;;5076176;28;20377;-68
2021/06/05 05:02:41;;;;;;;14.48;7.30;;;487.10;1587.20;;;;;;5076584;28;20029;-56
2021/06/05 05:05:07;;;;;;;16.73;6.93;;;487.10;1561.60;;;;;;5076385;28;20440;-55
2021/06/05 05:07:33;;;;;;;12.80;6.50;;;487.10;1536.00;;;;;;5076017;28;20104;-56
2021/06/05 05:09:59;;;;;;;16.88;6.57;;;487.10;1510.40;;;;;;5075884;28;20112;-69
2021/06/05 05:12:26;;;;;;;14.27;5.95;;;487.20;1484.80;;;;;;5075977;28;20043;-56
2021/06/05 05:14:54;;;;;;;15.18;6.75;;;487.20;1484.80;;;;;;5076031;28;20100;-56
2021/06/05 05:17:21;;;;;;;12.05;6.68;;;487.20;1484.80;;;;;;5075982;28;20077;-56
2021/06/05 05:19:47;;;;;;;11.48;6.43;;;487.30;1484.80;;;;;;5074589;28;20024;-56
2021/06/05 05:22:13;;;;;;;9.65;7.15;;;487.30;1484.80;;;;;;5076080;28;20021;-56
2021/06/05 05:24:38;;;;;;;13.27;7.72;;;512.00;1510.40;;;;;;5075757;28;20381;-67
2021/06/05 05:27:05;;;;;;;8.77;7.03;;;512.00;1510.40;;;;;;5075747;28;20070;-56
2021/06/05 05:29:31;;;;;;;18.30;7.15;;;512.10;1510.40;;;;;;5075941;28;20393;-56
2021/06/05 05:31:57;;;;;;;17.73;7.88;;;512.10;1510.40;;;;;;5075762;28;20056;-56
2021/06/05 05:34:23;;;;;;;18.00;7.10;;;512.20;1510.40;;;;;;5075614;28;20059;-56
2021/06/05 05:36:49;;;;;;;11.50;6.72;;;512.10;1510.40;;;;;;5075811;28;20086;-56
2021/06/05 05:39:17;;;;;;;12.15;5.32;;;512.10;1484.80;;;;;;5074234;28;20477;-56
2021/06/05 05:41:44;;;;;;;8.60;5.53;;;512.20;1484.80;;;;;;5075364;28;20021;-57
2021/06/05 05:44:10;;;;;;;10.77;4.95;;;512.20;1484.80;;;;;;5075389;28;20036;-56
2021/06/05 05:46:37;;;;;;;8.40;4.68;;;512.30;1484.80;;;;;;5075326;28;20028;-68
2021/06/05 05:49:04;;;;;;;7.03;4.60;;;512.30;1484.80;;;;;;5075300;28;20051;-56
2021/06/05 05:51:30;;;;;;;11.15;4.57;;;512.40;1459.20;;;;;;5075490;28;20039;-56
2021/06/05 05:53:56;;;;;;;8.23;3.85;;;512.50;1433.60;;;;;;5075237;28;20468;-56
2021/06/05 05:56:25;;;;;;;8.50;3.55;;;512.60;1408.00;;;;;;5075099;28;20029;-56
2021/06/05 05:58:54;;;;;;;9.93;4.00;;;512.60;1382.40;;;;;;5074928;28;20055;-56
2021/06/05 06:01:21;;;;;;;7.68;3.67;;;512.70;1382.40;;;;;;5075275;28;20028;-56
2021/06/05 06:03:48;;;;;;;11.55;3.90;;;512.80;1382.40;;;;;;5074991;28;20050;-56
2021/06/05 06:06:14;;;;;;;9.02;4.47;;;512.90;1382.40;;;;;;5074972;28;20025;-56
2021/06/05 06:08:41;;;;;;;5.45;3.13;;;537.60;1408.00;;;;;;5073731;28;20024;-57
2021/06/05 06:11:09;;;;;;;6.63;3.60;;;537.70;1408.00;;;;;;5074834;28;20041;-69
2021/06/05 06:13:36;;;;;;;6.75;3.72;;;537.80;1382.40;;;;;;5074788;28;20142;-69
2021/06/05 06:16:03;;;;;;;7.93;3.22;;;537.90;1382.40;;;;;;5074771;28;20024;-56
2021/06/05 06:18:30;;;;;;;7.32;3.20;;;538.00;1382.40;;;;;;5074962;28;20111;-56
2021/06/05 06:20:57;;;;;;;9.63;3.50;;;538.10;1382.40;;;;;;5074671;28;20025;-56
2021/06/05 06:23:27;;;;;;;10.07;2.85;;;538.10;1382.40;;;;;;5074884;28;20025;-56
2021/06/05 06:25:55;;;;;;;6.32;3.30;;;538.20;1382.40;;;;;;5074523;28;20020;-56
2021/06/05 06:28:28;;;;;;;8.95;2.97;;;538.40;1356.80;;;;;;5074467;28;20035;-56
2021/06/05 06:30:55;;;;;;;8.40;3.00;;;538.50;1331.20;;;;;;5074724;28;20040;-56
2021/06/05 06:33:21;;;;;;;7.68;3.28;;;563.20;1356.80;;;;;;5074424;28;20032;-57
2021/06/05 06:35:48;;;;;;;9.82;3.90;;;563.40;1356.80;;;;;;5074422;28;20476;-57
2021/06/05 06:38:21;;;;;;;9.82;3.40;;;563.60;1356.80;;;;;;5074331;28;20021;-56
2021/06/05 06:40:47;;;;;;;6.00;2.83;;;563.70;1331.20;;;;;;5073063;28;20024;-56
2021/06/05 06:43:17;;;;;;;9.52;2.88;;;563.80;1305.60;;;;;;5074223;28;20515;-57
2021/06/05 06:45:44;;;;;;;6.45;2.63;;;563.90;1331.20;;;;;;5074266;28;20033;-57
2021/06/05 06:48:10;;;;;;;7.88;2.60;;;564.00;1305.60;;;;;;5073902;28;20021;-67
2021/06/05 06:50:36;;;;;;;6.30;2.83;;;564.10;1280.00;;;;;;5074071;28;20028;-56
2021/06/05 06:53:03;;;;;;;6.50;3.03;;;588.80;1280.00;;;;;;5074587;28;20114;-56
2021/06/05 06:55:29;;;;;;;7.30;3.00;;;588.90;1280.00;;;;;;5074071;28;20058;-57
2021/06/05 06:57:55;;;;;;;4.53;2.60;;;589.00;1254.40;;;;;;5073862;28;20493;-57
2021/06/05 07:00:42;;;;;;;10.85;3.25;;;589.10;1228.80;;;;;;5073779;28;20040;-56
2021/06/05 07:03:08;;;;;;;8.02;2.35;;;589.20;1228.80;;;;;;5071290;28;20017;-56
2021/06/05 07:05:36;;;;;;;8.93;2.33;;;589.30;1280.00;;;;;;5073791;28;20040;-57
2021/06/05 07:08:17;;;;;;;5.32;3.08;;;589.40;1228.80;;;;;;5073051;28;20055;-58
2021/06/05 07:10:45;;;;;;;5.10;2.05;;;589.40;1177.60;;;;;;5072884;28;20106;-57
2021/06/05 07:13:11;;;;;;;6.47;2.30;;;589.50;1126.40;;;;;;5073077;28;20492;-62
2021/06/05 07:15:37;;;;;;;6.55;2.67;;;589.50;1152.00;;;;;;5073167;28;20028;-59
2021/06/05 07:18:05;;;;;;;9.07;2.80;;;589.60;1152.00;;;;;;5073177;28;20021;-67
2021/06/05 07:20:32;;;;;;;5.88;2.20;;;589.70;1152.00;;;;;;5072943;28;20028;-57
2021/06/05 07:22:59;;;;;;;5.35;2.55;;;614.40;1152.00;;;;;;5073304;28;20025;-57
2021/06/05 07:25:25;;;;;;;8.10;2.78;;;614.50;1152.00;;;;;;5072945;28;20016;-57
2021/06/05 07:27:51;;;;;;;7.20;2.60;;;614.50;1152.00;;;;;;5073143;28;20040;-59
2021/06/05 07:30:17;;;;;;;5.07;2.22;;;614.50;1126.40;;;;;;5072761;28;20410;-57
2021/06/05 07:32:44;;;;;;;7.35;2.88;;;614.60;1126.40;;;;;;5072918;28;20040;-59
2021/06/05 07:35:10;;;;;;;6.45;2.00;;;614.60;1100.80;;;;;;5072913;28;20024;-60
2021/06/05 07:37:36;;;;;;;5.45;2.45;;;614.70;1100.80;;;;;;5072738;28;20391;-59
2021/06/05 07:40:07;;;;;;;5.82;2.50;;;614.70;1100.80;;;;;;5072342;28;20024;-63
2021/06/05 07:42:35;;;;;;;5.53;2.50;;;614.80;1100.80;;;;;;5071780;28;20028;-65
2021/06/05 07:45:01;;;;;;;3.97;2.42;;;614.80;1152.00;;;;;;5072092;28;20485;-67
2021/06/05 07:47:27;;;;;;;5.90;2.55;;;614.90;1075.20;;;;;;5072639;28;20025;-57
2021/06/05 07:49:53;;;;;;;6.97;2.20;;;614.90;1126.40;;;;;;5071881;28;20020;-64
2021/06/05 07:52:23;;;;;;;5.18;2.45;;;615.00;1100.80;;;;;;5072213;28;20040;-61
2021/06/05 07:54:54;;;;;;;5.80;2.08;;;614.90;1075.20;;;;;;5073224;28;20028;-64
2021/06/05 07:57:24;;;;;;;3.45;2.15;;;615.00;972.80;;;;;;5071578;28;20139;-65
2021/06/05 07:59:50;;;;;;;20.33;3.05;;;615.00;998.40;;;;;;5073092;28;20099;-67
2021/06/05 08:02:17;;;;;;;5.75;2.20;;;615.10;1024.00;;;;;;5073066;28;20016;-67
2021/06/05 08:04:43;;;;;;;8.23;2.65;;;615.10;1075.20;;;;;;5071740;28;20037;-64
2021/06/05 08:07:10;;;;;;;11.05;2.97;;;615.10;1049.60;;;;;;5067005;28;20024;-67
2021/06/05 08:09:36;;;;;;;12.75;2.65;;;615.20;1049.60;;;;;;5071796;28;20021;-68
2021/06/05 08:12:03;;;;;;;6.93;2.45;;;615.20;998.40;;;;;;5071925;28;20113;-60
2021/06/05 08:14:29;;;;;;;5.70;2.17;;;615.30;1024.00;;;;;;5070281;28;20056;-59
2021/06/05 08:16:54;;;;;;;14.90;2.40;;;615.30;1049.60;;;;;;5071008;28;20442;-66
2021/06/05 08:19:20;;;;;;;6.30;1.98;;;615.30;1024.00;;;;;;5072001;28;20070;-64
2021/06/05 08:21:47;;;;;;;9.38;2.45;;;615.30;972.80;;;;;;5075327;28;20491;-64
2021/06/05 08:24:15;;;;;;;5.40;2.65;;;640.00;998.40;;;;;;5075239;28;20431;-59
2021/06/05 08:26:41;;;;;;;4.72;2.10;;;640.10;1024.00;;;;;;5068799;28;20024;-57
2021/06/05 08:29:07;;;;;;;22.35;3.30;;;640.10;972.80;;;;;;5076646;28;20024;-58
2021/06/05 08:31:34;;;;;;;16.70;2.72;;;640.10;998.40;;;;;;5075398;28;20032;-57
2021/06/05 08:34:00;;;;;;;7.18;2.30;;;640.10;998.40;;;;;;5076563;28;20023;-57
2021/06/05 08:36:28;;;;;;;4.63;2.38;;;640.10;972.80;;;;;;5076160;28;20028;-64
2021/06/05 08:38:54;;;;;;;9.45;2.80;;;640.10;1024.00;;;;;;5075784;28;20381;-57
2021/06/05 08:41:33;;;;;;;8.02;2.28;;;640.20;1024.00;;;;;;5075744;28;20051;-58
2021/06/05 08:44:09;;;;;;;6.40;2.63;;;640.30;972.80;;;;;;5074433;28;20021;-59
2021/06/05 08:46:51;;;;;;;4.82;2.08;;;640.30;1024.00;;;;;;5068323;28;20108;-62
2021/06/05 08:49:32;;;;;;;5.57;2.70;;;640.30;998.40;;;;;;5075038;28;20099;-60
2021/06/05 08:52:07;;;;;;;8.13;2.40;;;640.50;947.20;;;;;;5058637;28;20354;-58
2021/06/05 08:54:35;;;;;;;4.38;2.10;;;640.30;1024.00;;;;;;5072272;28;20085;-63
2021/06/05 08:57:14;;;;;;;8.63;2.25;;;640.50;1049.60;;;;;;5073570;28;20020;-58
2021/06/05 08:59:45;;;;;;;7.38;2.72;;;640.50;1024.00;;;;;;5069975;28;20682;-59
2021/06/05 09:02:11;;;;;;;9.98;2.70;;;640.60;998.40;;;;;;5068042;28;20024;-58
2021/06/05 09:04:38;;;;;;;8.02;2.42;;;640.50;998.40;;;;;;5069328;28;20025;-59
2021/06/05 09:07:11;;;;;;;4.68;2.20;;;640.60;972.80;;;;;;5073398;28;20017;-64
2021/06/05 09:09:40;;;;;;;5.28;1.90;;;640.60;998.40;;;;;;5075496;28;20025;-57
2021/06/05 09:12:08;;;;;;;9.05;2.47;;;640.60;921.60;;;;;;5074102;28;20151;-58
2021/06/05 09:14:34;;;;;;;7.40;2.42;;;640.60;921.60;;;;;;5075698;28;20021;-57
2021/06/05 09:17:12;;;;;;;5.22;2.20;;;640.70;947.20;;;;;;5074964;28;20115;-57
2021/06/05 09:19:38;;;;;;;6.03;2.58;;;640.70;947.20;;;;;;5074939;28;20028;-57
2021/06/05 09:22:16;;;;;;;5.65;2.60;;;640.90;921.60;;;;;;5075805;28;20021;-60
2021/06/05 09:24:48;;;;;;;7.70;2.28;;;640.80;998.40;;;;;;5075696;28;20040;-58
2021/06/05 09:27:17;;;;;;;6.93;2.47;;;640.80;972.80;;;;;;5075477;28;20025;-57
2021/06/05 09:29:50;;;;;;;6.22;2.60;;;640.80;998.40;;;;;;5075044;28;20025;-57
2021/06/05 09:32:21;;;;;;;9.75;2.85;;;640.80;1024.00;;;;;;5075573;28;20044;-57
2021/06/05 09:35:04;;;;;;;8.02;2.80;;;640.80;998.40;;;;;;5074914;28;20031;-61
2021/06/05 09:37:32;;;;;;;4.15;2.03;;;640.80;972.80;;;;;;5075530;28;20048;-58
2021/06/05 09:39:58;;;;;;;3.85;2.10;;;640.80;921.60;;;;;;5074168;28;20050;-61
2021/06/05 09:42:31;;;;;;;8.05;2.40;;;640.90;896.00;;;;;;5075357;28;20400;-59
2021/06/05 09:44:57;;;;;;;;;;;640.90;947.20;;;;;;5075813;28;20130;-57
2021/06/05 09:47:27;;;;;;;10.10;2.20;;;640.90;921.60;;;;;;5075147;28;19908;-59
2021/06/05 09:50:15;;;;;;;13.27;2.85;;;640.90;921.60;;;;;;5075091;28;20047;-60
2021/06/05 09:52:41;;;;;;;7.97;2.50;;;665.60;972.80;;;;;;5075458;28;20039;-58
2021/06/05 09:55:32;;;;;;;6.57;2.70;;;665.70;972.80;;;;;;5075064;28;20099;-58
2021/06/05 09:57:59;;;;;;;8.82;3.17;;;665.60;1049.60;;;;;;5074806;28;20447;-57
2021/06/05 10:00:28;;;;;;;5.47;2.60;;;665.70;921.60;;;;;;5075106;28;20033;-58
2021/06/05 10:03:33;;;;;;;9.95;3.08;;;665.70;921.60;;;;;;5075373;28;20024;-58
2021/06/05 10:06:19;;;;;;;8.07;2.40;;;665.80;972.80;;;;;;5075041;28;20104;-57
2021/06/05 10:08:45;;;;;;;6.72;2.50;;;665.80;972.80;;;;;;5074605;28;20025;-59
2021/06/05 10:11:38;;;;;;;7.55;2.88;;;665.80;921.60;;;;;;5074840;28;20126;-58
2021/06/05 10:14:11;;;;;;;11.07;3.45;;;665.80;947.20;;;;;;5074873;28;20024;-58
2021/06/05 10:16:38;;;;;;;;;;;665.80;1024.00;;;;;;5074790;28;20049;-63
2021/06/05 10:19:13;;;;;;;6.50;2.85;;;665.70;1024.00;;;;;;5071803;28;19917;-58
2021/06/05 10:21:48;;;;;;;6.88;2.50;;;665.70;972.80;;;;;;5072099;28;20032;-58
2021/06/05 10:24:49;;;;;;;15.68;3.10;;;665.70;998.40;;;;;;5071497;28;20465;-58
2021/06/05 10:27:26;;;;;;;5.30;3.20;;;665.70;921.60;;;;;;5038929;28;20497;-58
2021/06/05 10:29:56;;;;;;;7.13;2.90;;;665.80;921.60;;;;;;5073858;28;20118;-59
2021/06/05 10:32:28;;;;;;;16.95;3.63;;;665.80;998.40;;;;;;5071397;28;20051;-60
2021/06/05 10:35:22;;;;;;;21.83;3.90;;;665.70;1024.00;;;;;;5072817;28;20389;-60
2021/06/05 10:37:48;;;;;;;16.70;3.92;;;665.70;998.40;;;;;;5072961;28;20407;-59
2021/06/05 10:40:22;;;;;;;29.05;3.65;;;665.70;998.40;;;;;;5072010;28;20389;-59
2021/06/05 10:42:50;;;;;;;5.22;2.70;;;665.70;998.40;;;;;;5071160;28;20052;-59
2021/06/05 10:45:24;;;;;;;10.82;3.03;;;665.80;947.20;;;;;;5073007;28;20481;-63
2021/06/05 10:48:13;;;;;;;13.88;3.10;;;665.80;921.60;;;;;;5072452;28;20036;-61
2021/06/05 10:50:49;;;;;;;9.32;2.60;;;665.80;896.00;;;;;;5072272;28;20040;-59
2021/06/05 10:53:35;;;;;;;6.55;2.53;;;665.90;972.80;;;;;;5070401;28;20109;-59
2021/06/05 10:56:16;;;;;;;3.95;2.38;;;665.90;921.60;;;;;;5071057;28;20021;-61
2021/06/05 10:58:50;;;;;;;9.63;2.33;;;666.00;870.40;;;;;;5072828;28;20039;-58
2021/06/05 11:01:22;;;;;;;8.00;2.60;;;666.00;896.00;;;;;;5070826;28;20043;-61
2021/06/05 11:04:28;;;;;;;13.38;2.95;;;666.10;844.80;;;;;;5073043;28;20024;-58
2021/06/05 11:07:02;;;;;;;9.20;2.47;;;666.20;896.00;;;;;;5062578;28;20120;-59
2021/06/05 11:09:30;;;;;;;13.13;3.78;;;666.20;844.80;;;;;;5073328;28;20050;-58
2021/06/05 11:11:59;;;;;;;11.43;3.60;;;666.30;844.80;;;;;;5070111;28;20127;-63
2021/06/05 11:14:44;;;;;;;15.52;3.00;;;666.20;870.40;;;;;;5073061;28;20031;-62
2021/06/05 11:17:19;;;;;;;10.32;2.42;;;666.20;947.20;;;;;;5072353;28;20029;-64
2021/06/05 11:20:14;;;;;;;18.63;2.92;;;666.10;921.60;;;;;;5073050;28;20020;-64
2021/06/05 11:22:52;;;;;;;4.22;2.58;;;666.20;844.80;;;;;;5072981;28;20021;-64
2021/06/05 11:25:17;;;;;;;10.55;2.88;;;666.30;870.40;;;;;;5070894;28;20024;-64
2021/06/05 11:27:49;;;;;;;15.10;3.20;;;666.40;870.40;;;;;;5072778;28;20531;-59
2021/06/05 11:30:21;;;;;;;15.45;2.90;;;666.30;896.00;;;;;;5070439;28;20021;-60
2021/06/05 11:32:56;;;;;;;12.50;3.20;;;666.30;870.40;;;;;;5073200;28;20438;-59
2021/06/05 11:35:42;;;;;;;12.25;3.05;;;666.30;896.00;;;;;;5073280;28;20050;-59
2021/06/05 11:38:11;;;;;;;17.80;2.97;;;666.30;947.20;;;;;;5073378;28;20050;-61
2021/06/05 11:41:07;;;;;;;9.85;2.63;;;666.40;921.60;;;;;;5073018;28;20029;-59
2021/06/05 11:43:33;;;;;;;9.73;2.75;;;666.50;947.20;;;;;;5067896;28;20515;-60
2021/06/05 11:46:11;;;;;;;8.40;2.80;;;666.40;972.80;;;;;;5072745;28;20033;-61
2021/06/05 11:48:48;;;;;;;15.80;5.47;;;666.50;947.20;;;;;;5071780;28;20032;-60
2021/06/05 11:51:33;;;;;;;21.92;8.10;;;691.20;947.20;;;;;;5071442;28;20040;-59
2021/06/05 11:54:11;;;;;;;21.95;6.43;;;691.30;921.60;;;;;;5077599;28;20017;-58
2021/06/05 11:57:22;;;;;;;10.98;4.15;;;691.30;921.60;;;;;;5077593;28;20095;-60
2021/06/05 11:59:47;;;;;;;12.88;6.22;;;691.30;921.60;;;;;;5057269;28;20048;-63
2021/06/05 12:02:30;;;;;;;24.70;11.15;;;691.30;947.20;;;;;;5054740;28;20029;-59
2021/06/05 12:05:33;;;;;;;11.73;2.65;;;691.30;921.60;;;;;;5057954;28;20048;-59
2021/06/05 12:07:59;;;;;;;20.57;5.07;;;691.30;870.40;;;;;;5057235;28;20036;-58
2021/06/05 12:10:41;;;;;;;8.85;3.03;;;691.40;844.80;;;;;;5057347;28;20107;-59
2021/06/05 12:13:26;;;;;;;22.38;6.88;;;691.40;844.80;;;;;;5057682;28;20025;-60
2021/06/05 12:15:54;;;;;;;42.55;15.43;;;691.50;870.40;;;;;;5057814;28;20060;-58
2021/06/05 12:18:25;;;;;;;7.28;2.38;;;691.50;793.60;;;;;;5040363;28;20398;-59
2021/06/05 12:20:58;;;;;;;13.57;3.67;;;691.70;768.00;;;;;;5056981;28;20095;-59
2021/06/05 12:23:24;;;;;;;24.02;8.75;;;691.70;768.00;;;;;;5056309;28;20115;-60
2021/06/05 12:25:51;;;;;;;14.07;4.35;;;691.70;793.60;;;;;;5055552;28;20130;-60
2021/06/05 12:28:27;;;;;;;7.82;3.35;;;691.70;793.60;;;;;;5055504;28;20029;-59
2021/06/05 12:30:56;;;;;;;9.48;2.72;;;691.80;844.80;;;;;;5052154;28;20071;-58
2021/06/05 12:33:34;;;;;;;11.02;3.83;;;691.80;844.80;;;;;;5059395;28;20428;-59